WATT/KOE METAR and TAF weather

Enter ICAO airport designator
Station Type Date Time Source
WATT METAR 2019/02/16 17:00 UTC NOAA

WATT 161700Z AUTO 08001KT 9999 SCT031 SCT120 25/24 Q1012


Station Type Date Time Source
WATT Decoded METAR 2019/02/16 17:00 UTC NOAA

Station name not available
Feb 16, 2019 - 12:00 PM EST / 2019.02.16 1700 UTC
Wind: from the E (080 degrees) at 1 MPH (1 KT):0
Visibility: greater than 7 mile(s):0
Sky conditions: partly cloudy
Temperature: 77 F (25 C)
Dew Point: 75 F (24 C)
Relative Humidity: 94%
Pressure (altimeter): 29.88 in. Hg (1012 hPa)
ob: WATT 161700Z AUTO 08001KT 9999 SCT031 SCT120 25/24 Q1012
cycle: 17

Station Type Date Time Source
WATT TAF 2019/02/16 18:00 UTC NOAA

TAF WATT 161700Z 1618/1718 10009KT 8000 SCT018 PROB40
TEMPO 1619/1623 30008KT 4000 -RA FEW015CB BKN015
BECMG 1700/1702 07005KT 9999


Example: see airport list